createdAt,value
2023-04-26T00:02:18.692Z,100315.78
2023-04-26T00:04:47.839Z,100323.16
2023-04-26T00:07:16.227Z,100326.53
2023-04-26T00:09:46.248Z,100328.44
2023-04-26T00:12:13.803Z,100326.38
2023-04-26T00:14:40.651Z,100318.53
2023-04-26T00:17:07.756Z,100327.16
2023-04-26T00:19:36.929Z,100322.31
2023-04-26T00:22:05.812Z,100323.53
2023-04-26T00:24:32.914Z,100328.34
2023-04-26T00:27:00.836Z,100329.03
2023-04-26T00:29:27.870Z,100321.25
2023-04-26T00:31:55.809Z,100323.22
2023-04-26T00:34:23.520Z,100315.34
2023-04-26T00:36:50.223Z,100323.31
2023-04-26T00:39:17.012Z,100310.94
2023-04-26T00:41:43.582Z,100310.59
2023-04-26T00:44:13.163Z,100318.69
2023-04-26T00:46:47.894Z,100308.69
2023-04-26T00:49:17.395Z,100309.91
2023-04-26T00:51:45.065Z,100311.56
2023-04-26T00:54:14.797Z,100310.88
2023-04-26T00:56:59.554Z,100303.03
2023-04-26T00:59:36.840Z,100307.47
2023-04-26T01:02:03.946Z,100303.84
2023-04-26T01:04:30.916Z,100294.84
2023-04-26T01:07:03.932Z,100296.59
2023-04-26T01:09:33.566Z,100302.44
2023-04-26T01:12:01.065Z,100304.59
2023-04-26T01:14:35.937Z,100302.84
2023-04-26T01:17:03.477Z,100288.53
2023-04-26T01:19:30.175Z,100296.00
2023-04-26T01:21:56.873Z,100295.22
2023-04-26T01:24:23.578Z,100287.22
2023-04-26T01:26:52.484Z,100288.81
2023-04-26T01:29:22.256Z,100291.69
2023-04-26T01:31:49.172Z,100291.38
2023-04-26T01:34:16.151Z,100295.81
2023-04-26T01:36:46.099Z,100297.50
2023-04-26T01:39:15.190Z,100289.88
2023-04-26T01:41:42.603Z,100292.16
2023-04-26T01:44:09.334Z,100285.97
2023-04-26T01:46:40.057Z,100289.22
2023-04-26T01:49:06.864Z,100285.88
2023-04-26T01:51:34.426Z,100287.16
2023-04-26T01:54:01.123Z,100288.59
2023-04-26T01:56:27.847Z,100271.38
2023-04-26T01:58:59.928Z,100276.16
2023-04-26T02:01:26.786Z,100274.22
2023-04-26T02:03:53.466Z,100275.22
2023-04-26T02:06:21.406Z,100277.66
2023-04-26T02:08:48.201Z,100272.38
2023-04-26T02:11:17.275Z,100263.69
2023-04-26T02:13:43.894Z,100264.47
2023-04-26T02:16:10.692Z,100264.13
2023-04-26T02:18:38.548Z,100269.34
2023-04-26T02:21:08.564Z,100259.97
2023-04-26T02:23:37.814Z,100263.53
2023-04-26T02:26:04.651Z,100256.22
2023-04-26T02:28:31.523Z,100267.03
2023-04-26T02:30:58.543Z,100257.03
2023-04-26T02:33:25.429Z,100253.72
2023-04-26T02:35:55.314Z,100254.81
2023-04-26T02:38:26.253Z,100249.13
2023-04-26T02:41:03.398Z,100257.13
2023-04-26T02:43:30.941Z,100259.00
2023-04-26T02:46:00.931Z,100244.47
2023-04-26T02:48:27.605Z,100235.31
2023-04-26T02:50:54.276Z,100239.91
2023-04-26T02:53:28.438Z,100234.22
2023-04-26T02:55:55.232Z,100235.78
2023-04-26T02:58:27.283Z,100223.91
2023-04-26T03:01:00.457Z,100226.63
2023-04-26T03:03:28.992Z,100228.69
2023-04-26T03:05:56.476Z,100228.03
2023-04-26T03:08:25.664Z,100221.28
2023-04-26T03:10:54.768Z,100217.94
2023-04-26T03:13:29.108Z,100225.28
2023-04-26T03:15:57.644Z,100226.34
2023-04-26T03:18:24.462Z,100230.88
2023-04-26T03:21:01.602Z,100225.88
2023-04-26T03:23:28.758Z,100227.50
2023-04-26T03:25:55.631Z,100223.81
2023-04-26T03:28:31.705Z,100218.38
2023-04-26T03:30:58.433Z,100222.69
2023-04-26T03:33:25.425Z,100213.22
2023-04-26T03:36:03.113Z,100209.44
2023-04-26T03:38:29.880Z,100211.97
2023-04-26T03:40:56.875Z,100207.53
2023-04-26T03:43:24.077Z,100206.59
2023-04-26T03:45:53.984Z,100196.34
2023-04-26T03:48:29.548Z,100205.25
2023-04-26T03:50:56.237Z,100200.13
2023-04-26T03:53:25.898Z,100190.59
2023-04-26T03:55:55.000Z,100196.28
2023-04-26T03:58:26.010Z,100188.00
2023-04-26T04:00:56.632Z,100179.00
2023-04-26T04:03:23.455Z,100172.63
2023-04-26T04:05:51.731Z,100157.00
2023-04-26T04:08:20.477Z,100160.38
2023-04-26T04:10:54.883Z,100157.81
2023-04-26T04:13:23.122Z,100155.69
2023-04-26T04:15:49.819Z,100156.75
2023-04-26T04:18:22.418Z,100158.41
2023-04-26T04:20:50.373Z,100160.84
2023-04-26T04:23:17.174Z,100154.84
2023-04-26T04:25:45.521Z,100147.47
2023-04-26T04:28:13.510Z,100156.19
2023-04-26T04:30:44.242Z,100150.28
2023-04-26T04:33:11.013Z,100149.66
2023-04-26T04:35:37.891Z,100151.34
2023-04-26T04:38:05.786Z,100148.78
2023-04-26T04:40:40.187Z,100154.84
2023-04-26T04:43:07.531Z,100172.19
2023-04-26T04:45:35.634Z,100166.16
2023-04-26T04:48:05.177Z,100165.59
2023-04-26T04:50:32.253Z,100174.97
2023-04-26T04:52:59.298Z,100185.31
2023-04-26T04:55:26.610Z,100194.94
2023-04-26T04:57:53.808Z,100214.34
2023-04-26T05:00:21.226Z,100221.31
2023-04-26T05:02:52.789Z,100234.09
2023-04-26T05:05:20.039Z,100237.91
2023-04-26T05:07:47.134Z,100251.63
2023-04-26T05:10:21.936Z,100259.41
2023-04-26T05:12:49.342Z,100271.56
2023-04-26T05:15:16.193Z,100274.22
2023-04-26T05:17:43.453Z,100292.97
2023-04-26T05:20:22.597Z,100303.09
2023-04-26T05:22:50.229Z,100314.34
2023-04-26T05:25:26.076Z,100317.94
2023-04-26T05:28:05.518Z,100319.50
2023-04-26T05:31:00.115Z,100314.06
2023-04-26T05:33:42.617Z,100312.81
2023-04-26T05:36:16.480Z,100319.19
2023-04-26T05:38:43.329Z,100322.19
2023-04-26T05:41:10.030Z,100318.53
2023-04-26T05:43:37.739Z,100323.81
2023-04-26T05:46:05.285Z,100316.09
2023-04-26T05:48:42.309Z,100322.03
2023-04-26T05:51:09.038Z,100318.16
2023-04-26T05:53:36.021Z,100310.19
2023-04-26T05:56:10.341Z,100323.78
2023-04-26T05:58:37.149Z,100327.13
2023-04-26T06:01:04.443Z,100344.09
2023-04-26T06:03:38.372Z,100353.50
2023-04-26T06:06:05.499Z,100359.00
2023-04-26T06:08:32.321Z,100364.97
2023-04-26T06:10:59.023Z,100367.94
2023-04-26T06:13:27.042Z,100376.25
2023-04-26T06:16:01.610Z,100382.06
2023-04-26T06:18:28.459Z,100375.28
2023-04-26T06:20:57.585Z,100387.56
2023-04-26T06:23:27.506Z,100382.78
2023-04-26T06:25:55.671Z,100381.78
2023-04-26T06:28:29.855Z,100390.75
2023-04-26T06:30:59.161Z,100390.56
2023-04-26T06:33:28.782Z,100398.53
2023-04-26T06:35:55.601Z,100407.66
2023-04-26T06:38:29.508Z,100409.16
2023-04-26T06:40:57.378Z,100410.63
2023-04-26T06:43:26.596Z,100419.59
2023-04-26T06:45:59.806Z,100426.72
2023-04-26T06:48:27.429Z,100428.19
2023-04-26T06:50:55.977Z,100429.88
2023-04-26T06:53:41.565Z,100422.59
2023-04-26T06:56:15.547Z,100431.22
2023-04-26T06:58:58.913Z,100429.91
2023-04-26T07:01:29.392Z,100446.53
2023-04-26T07:03:59.721Z,100451.00
2023-04-26T07:06:28.979Z,100448.13
2023-04-26T07:08:55.835Z,100452.13
2023-04-26T07:11:24.672Z,100447.38
2023-04-26T07:13:53.279Z,100447.53
2023-04-26T07:16:26.590Z,100453.94
2023-04-26T07:18:53.338Z,100452.78
2023-04-26T07:21:20.059Z,100465.81
2023-04-26T07:23:46.724Z,100472.75
2023-04-26T07:26:22.330Z,100456.06
2023-04-26T07:28:49.315Z,100466.75
2023-04-26T07:31:16.634Z,100465.09
2023-04-26T07:33:51.363Z,100454.91
2023-04-26T07:36:18.339Z,100472.88
2023-04-26T07:38:45.177Z,100482.75
2023-04-26T07:41:13.014Z,100490.72
2023-04-26T07:43:39.773Z,100489.41
2023-04-26T07:46:09.003Z,100487.78
2023-04-26T07:48:35.755Z,100491.94
2023-04-26T07:51:10.263Z,100490.44
2023-04-26T07:53:37.364Z,100493.47
2023-04-26T07:56:06.111Z,100492.56
2023-04-26T07:58:33.055Z,100500.00
2023-04-26T08:01:00.549Z,100513.72
2023-04-26T08:03:28.269Z,100513.66
2023-04-26T08:05:59.183Z,100501.19
2023-04-26T08:08:27.021Z,100504.81
2023-04-26T08:10:54.010Z,100502.66
2023-04-26T08:13:22.874Z,100504.41
2023-04-26T08:15:49.673Z,100504.94
2023-04-26T08:18:16.349Z,100497.25
2023-04-26T08:20:43.048Z,100498.16
2023-04-26T08:23:09.782Z,100504.31
2023-04-26T08:25:36.474Z,100505.94
2023-04-26T08:28:03.165Z,100501.88
2023-04-26T08:30:30.038Z,100515.56
2023-04-26T08:32:56.802Z,100507.22
2023-04-26T08:35:23.613Z,100512.06
2023-04-26T08:37:50.669Z,100507.97
2023-04-26T08:40:23.815Z,100516.16
2023-04-26T08:42:52.587Z,100518.88
2023-04-26T08:45:21.003Z,100523.59
2023-04-26T08:47:49.525Z,100533.56
2023-04-26T08:50:21.013Z,100518.50
2023-04-26T08:52:50.264Z,100521.59
2023-04-26T08:55:18.385Z,100526.31
2023-04-26T08:57:56.104Z,100520.97
2023-04-26T09:00:23.534Z,100527.16
2023-04-26T09:02:54.268Z,100526.84
2023-04-26T09:05:24.676Z,100529.63
2023-04-26T09:07:56.402Z,100529.38
2023-04-26T09:10:23.458Z,100524.88
2023-04-26T09:12:56.609Z,100529.38
2023-04-26T09:15:26.524Z,100526.56
2023-04-26T09:17:53.851Z,100506.13
2023-04-26T09:20:27.243Z,100515.69
2023-04-26T09:23:09.615Z,100515.63
2023-04-26T09:25:36.488Z,100516.94
2023-04-26T09:28:03.969Z,100517.66
2023-04-26T09:30:31.352Z,100526.91
2023-04-26T09:33:05.968Z,100531.34
2023-04-26T09:35:36.569Z,100534.59
2023-04-26T09:38:09.674Z,100540.25
2023-04-26T09:40:44.353Z,100539.44
2023-04-26T09:43:12.926Z,100537.69
2023-04-26T09:45:46.814Z,100539.13
2023-04-26T09:48:18.158Z,100538.19
2023-04-26T09:50:48.400Z,100534.75
2023-04-26T09:53:38.511Z,100536.25
2023-04-26T09:56:18.929Z,100537.00
2023-04-26T09:58:58.116Z,100527.22
2023-04-26T10:01:25.881Z,100535.38
2023-04-26T10:03:53.243Z,100532.44
2023-04-26T10:06:20.204Z,100535.09
2023-04-26T10:08:47.037Z,100535.22
2023-04-26T10:11:14.232Z,100528.19
2023-04-26T10:13:44.861Z,100524.34
2023-04-26T10:16:11.768Z,100529.91
2023-04-26T10:18:38.549Z,100529.94
2023-04-26T10:21:15.268Z,100532.69
2023-04-26T10:23:42.149Z,100546.06
2023-04-26T10:26:48.519Z,100535.09
2023-04-26T10:29:15.514Z,100534.47
2023-04-26T10:32:01.797Z,100535.09
2023-04-26T10:34:31.331Z,100524.22
2023-04-26T10:37:14.815Z,100530.25
2023-04-26T10:39:43.675Z,100531.59
2023-04-26T10:42:30.785Z,100531.66
2023-04-26T10:44:58.747Z,100526.25
2023-04-26T10:47:28.863Z,100527.72
2023-04-26T10:50:09.805Z,100518.81
2023-04-26T10:52:38.403Z,100513.97
2023-04-26T10:55:10.243Z,100507.63
2023-04-26T10:57:53.933Z,100503.06
2023-04-26T11:00:27.045Z,100512.41
2023-04-26T11:02:59.502Z,100512.13
2023-04-26T11:05:38.636Z,100511.94
2023-04-26T11:08:21.172Z,100515.88
2023-04-26T11:10:59.506Z,100506.97
2023-04-26T11:13:26.287Z,100503.78
2023-04-26T11:15:54.607Z,100502.88
2023-04-26T11:18:22.778Z,100503.22
2023-04-26T11:20:49.483Z,100503.81
2023-04-26T11:23:18.735Z,100497.75
2023-04-26T11:25:45.540Z,100503.34
2023-04-26T11:28:12.361Z,100497.63
2023-04-26T11:30:39.004Z,100501.56
2023-04-26T11:33:05.730Z,100506.47
2023-04-26T11:35:35.849Z,100510.34
2023-04-26T11:38:04.750Z,100509.50
2023-04-26T11:40:32.406Z,100511.94
2023-04-26T11:43:01.415Z,100518.50
2023-04-26T11:45:28.378Z,100522.41
2023-04-26T11:47:55.399Z,100516.91
2023-04-26T11:50:26.741Z,100528.28
2023-04-26T11:52:57.367Z,100515.25
2023-04-26T11:55:29.060Z,100515.13
2023-04-26T11:58:09.439Z,100507.53
2023-04-26T12:00:36.099Z,100510.53
2023-04-26T12:03:11.081Z,100514.13
2023-04-26T12:05:38.539Z,100513.13
2023-04-26T12:08:05.360Z,100514.94
2023-04-26T12:10:41.351Z,100516.47
2023-04-26T12:13:07.992Z,100526.56
2023-04-26T12:15:34.976Z,100526.44
2023-04-26T12:18:10.860Z,100529.38
2023-04-26T12:20:40.035Z,100537.47
2023-04-26T12:23:08.872Z,100544.00
2023-04-26T12:25:39.359Z,100527.97
2023-04-26T12:28:12.300Z,100542.97
2023-04-26T12:30:40.336Z,100537.09
2023-04-26T12:33:17.249Z,100539.66
2023-04-26T12:35:44.842Z,100535.38
2023-04-26T12:38:12.289Z,100528.91
2023-04-26T12:40:49.945Z,100535.19
2023-04-26T12:43:17.125Z,100538.00
2023-04-26T12:46:00.637Z,100531.63
2023-04-26T12:48:30.458Z,100532.69
2023-04-26T12:50:57.306Z,100533.91
2023-04-26T12:53:31.589Z,100529.28
2023-04-26T12:55:58.713Z,100533.28
2023-04-26T12:58:31.552Z,100524.31
2023-04-26T13:00:58.350Z,100527.31
2023-04-26T13:03:27.762Z,100532.03
2023-04-26T13:05:57.663Z,100530.91
2023-04-26T13:08:24.550Z,100538.94
2023-04-26T13:11:00.001Z,100533.66
2023-04-26T13:13:39.943Z,100543.09
2023-04-26T13:16:13.465Z,100534.72
2023-04-26T13:18:41.155Z,100545.53
2023-04-26T13:21:08.036Z,100544.22
2023-04-26T13:23:34.727Z,100548.44
2023-04-26T13:26:01.698Z,100540.34
2023-04-26T13:28:28.358Z,100543.28
2023-04-26T13:30:56.003Z,100541.56
2023-04-26T13:33:27.484Z,100538.34
2023-04-26T13:35:59.520Z,100543.09
2023-04-26T13:38:29.813Z,100544.63
2023-04-26T13:40:57.872Z,100545.44
2023-04-26T13:43:33.750Z,100538.16
2023-04-26T13:46:01.430Z,100546.31
2023-04-26T13:48:28.329Z,100539.38
2023-04-26T13:51:03.975Z,100531.78
2023-04-26T13:53:31.666Z,100537.72
2023-04-26T13:55:58.486Z,100544.78
2023-04-26T13:58:44.025Z,100534.09
2023-04-26T14:01:16.948Z,100541.22
2023-04-26T14:03:43.852Z,100540.09
2023-04-26T14:06:11.325Z,100533.06
2023-04-26T14:08:38.022Z,100529.22
2023-04-26T14:11:05.004Z,100533.13
2023-04-26T14:13:34.634Z,100519.91
2023-04-26T14:16:01.368Z,100519.22
2023-04-26T14:18:28.070Z,100515.41
2023-04-26T14:21:15.232Z,100517.47
2023-04-26T14:23:41.900Z,100521.47
2023-04-26T14:26:08.735Z,100524.53
2023-04-26T14:28:36.491Z,100530.44
2023-04-26T14:31:03.181Z,100526.81
2023-04-26T14:33:29.931Z,100534.81
2023-04-26T14:35:59.115Z,100517.72
2023-04-26T14:38:25.867Z,100538.69
2023-04-26T14:40:55.317Z,100523.00
2023-04-26T14:43:29.155Z,100517.06
2023-04-26T14:45:58.889Z,100528.81
2023-04-26T14:48:26.255Z,100523.50
2023-04-26T14:50:59.286Z,100524.16
2023-04-26T14:53:28.862Z,100526.34
2023-04-26T14:55:59.131Z,100526.81
2023-04-26T14:58:28.603Z,100528.03
2023-04-26T15:00:58.941Z,100528.50
2023-04-26T15:03:28.985Z,100530.06
2023-04-26T15:06:00.123Z,100538.47
2023-04-26T15:08:27.449Z,100541.44
2023-04-26T15:11:01.784Z,100545.19
2023-04-26T15:13:28.528Z,100544.31
2023-04-26T15:15:57.688Z,100551.44
2023-04-26T15:18:28.734Z,100556.97
2023-04-26T15:20:57.686Z,100551.28
2023-04-26T15:23:25.160Z,100549.47
2023-04-26T15:25:52.133Z,100552.78
2023-04-26T15:28:18.868Z,100549.28
2023-04-26T15:30:49.384Z,100553.44
2023-04-26T15:33:16.971Z,100547.53
2023-04-26T15:35:43.872Z,100549.38
2023-04-26T15:38:10.570Z,100542.75
2023-04-26T15:40:38.231Z,100538.69
2023-04-26T15:43:05.055Z,100536.53
2023-04-26T15:45:31.698Z,100546.03
2023-04-26T15:47:58.511Z,100546.94
2023-04-26T15:50:25.218Z,100548.56
2023-04-26T15:52:52.142Z,100548.50
2023-04-26T15:55:21.936Z,100550.53
2023-04-26T15:57:48.622Z,100550.72
2023-04-26T16:00:16.002Z,100559.63
2023-04-26T16:02:45.760Z,100562.28
2023-04-26T16:05:12.605Z,100560.97
2023-04-26T16:07:40.173Z,100560.97
2023-04-26T16:10:09.581Z,100558.69
2023-04-26T16:12:41.605Z,100553.56
2023-04-26T16:15:11.197Z,100554.97
2023-04-26T16:17:38.743Z,100562.00
2023-04-26T16:20:07.213Z,100555.69
2023-04-26T16:22:45.265Z,100561.72
2023-04-26T16:25:12.145Z,100556.47
2023-04-26T16:27:38.910Z,100562.81
2023-04-26T16:30:17.166Z,100555.28
2023-04-26T16:32:43.871Z,100553.16
2023-04-26T16:35:11.066Z,100551.97
2023-04-26T16:37:45.981Z,100551.03
2023-04-26T16:40:13.452Z,100546.88
2023-04-26T16:42:44.466Z,100543.47
2023-04-26T16:45:18.721Z,100542.91
2023-04-26T16:47:45.448Z,100549.22
2023-04-26T16:50:12.553Z,100550.97
2023-04-26T16:52:39.261Z,100557.28
2023-04-26T16:55:08.881Z,100552.31
2023-04-26T16:57:35.678Z,100548.50
2023-04-26T17:00:03.722Z,100557.56
2023-04-26T17:02:30.984Z,100554.34
2023-04-26T17:04:58.097Z,100555.06
2023-04-26T17:07:50.553Z,100550.44
2023-04-26T17:10:17.519Z,100549.16
2023-04-26T17:12:44.219Z,100558.00
2023-04-26T17:15:11.937Z,100555.50
2023-04-26T17:17:39.045Z,100562.03
2023-04-26T17:20:13.411Z,100564.34
2023-04-26T17:22:40.766Z,100559.06
2023-04-26T17:25:08.199Z,100566.41
2023-04-26T17:27:37.683Z,100570.59
2023-04-26T17:30:12.600Z,100558.44
2023-04-26T17:32:39.381Z,100562.94
2023-04-26T17:35:08.806Z,100566.31
2023-04-26T17:37:35.558Z,100565.34
2023-04-26T17:40:08.345Z,100570.03
2023-04-26T17:42:41.871Z,100574.22
2023-04-26T17:45:13.542Z,100575.09
2023-04-26T17:47:41.623Z,100575.09
2023-04-26T17:50:11.296Z,100583.44
2023-04-26T17:52:38.397Z,100587.63
2023-04-26T17:55:08.156Z,100583.97
2023-04-26T17:57:40.580Z,100579.34
2023-04-26T18:00:10.464Z,100580.34
2023-04-26T18:02:39.697Z,100575.34
2023-04-26T18:05:16.381Z,100581.16
2023-04-26T18:07:43.072Z,100584.03
2023-04-26T18:10:09.964Z,100583.22
2023-04-26T18:12:37.777Z,100584.53
2023-04-26T18:15:10.391Z,100581.69
2023-04-26T18:17:39.250Z,100585.38
2023-04-26T18:20:17.182Z,100582.56
2023-04-26T18:22:44.231Z,100587.56
2023-04-26T18:25:11.166Z,100592.03
2023-04-26T18:27:37.904Z,100589.91
2023-04-26T18:30:08.804Z,100596.56
2023-04-26T18:32:38.117Z,100595.72
2023-04-26T18:35:08.669Z,100595.53
2023-04-26T18:37:42.674Z,100590.91
2023-04-26T18:40:09.913Z,100589.25
2023-04-26T18:42:38.775Z,100600.06
2023-04-26T18:45:09.162Z,100595.91
2023-04-26T18:47:41.907Z,100597.88
2023-04-26T18:50:08.870Z,100596.06
2023-04-26T18:52:37.553Z,100605.88
2023-04-26T18:55:07.498Z,100598.22
2023-04-26T18:57:39.623Z,100595.22
2023-04-26T19:00:08.322Z,100598.56
2023-04-26T19:02:40.303Z,100601.88
2023-04-26T19:05:09.682Z,100600.22
2023-04-26T19:07:37.062Z,100606.53
2023-04-26T19:10:11.543Z,100605.69
2023-04-26T19:12:38.323Z,100602.34
2023-04-26T19:15:05.668Z,100602.53
2023-04-26T19:17:35.602Z,100605.19
2023-04-26T19:20:02.953Z,100609.16
2023-04-26T19:22:30.070Z,100612.94
2023-04-26T19:24:57.332Z,100605.78
2023-04-26T19:27:24.360Z,100612.59
2023-04-26T19:29:51.169Z,100609.91
2023-04-26T19:32:19.987Z,100615.53
2023-04-26T19:34:46.782Z,100612.38
2023-04-26T19:37:13.563Z,100609.03
2023-04-26T19:39:40.600Z,100609.38
2023-04-26T19:42:07.367Z,100603.56
2023-04-26T19:44:34.110Z,100606.50
2023-04-26T19:47:04.479Z,100605.38
2023-04-26T19:49:31.464Z,100602.84
2023-04-26T19:51:58.265Z,100603.50
2023-04-26T19:54:24.978Z,100604.31
2023-04-26T19:56:52.039Z,100602.78
2023-04-26T19:59:21.394Z,100608.41
2023-04-26T20:01:53.193Z,100601.44
2023-04-26T20:04:21.410Z,100612.06
2023-04-26T20:06:53.113Z,100607.75
2023-04-26T20:09:19.983Z,100611.25
2023-04-26T20:11:49.961Z,100607.91
2023-04-26T20:14:26.144Z,100606.09
2023-04-26T20:16:53.012Z,100609.59
2023-04-26T20:19:19.953Z,100609.59
2023-04-26T20:21:56.647Z,100606.94
2023-04-26T20:24:24.202Z,100611.44
2023-04-26T20:26:51.001Z,100616.41
2023-04-26T20:29:17.856Z,100617.28
2023-04-26T20:31:52.091Z,100608.97
2023-04-26T20:34:18.966Z,100609.13
2023-04-26T20:36:48.449Z,100619.28
2023-04-26T20:39:22.781Z,100615.97
2023-04-26T20:41:49.470Z,100609.97
2023-04-26T20:44:18.726Z,100621.59
2023-04-26T20:46:47.975Z,100614.13
2023-04-26T20:49:21.844Z,100620.94
2023-04-26T20:51:48.591Z,100619.09
2023-04-26T20:54:23.117Z,100619.28
2023-04-26T20:56:50.040Z,100621.09
2023-04-26T20:59:17.693Z,100617.44
2023-04-26T21:01:53.855Z,100619.16
2023-04-26T21:04:21.206Z,100620.84
2023-04-26T21:06:50.533Z,100625.31
2023-04-26T21:09:17.236Z,100627.63
2023-04-26T21:11:52.684Z,100627.00
2023-04-26T21:14:19.374Z,100630.16
2023-04-26T21:16:53.672Z,100624.31
2023-04-26T21:19:20.598Z,100629.78
2023-04-26T21:21:49.763Z,100627.84
2023-04-26T21:24:16.455Z,100633.94
2023-04-26T21:26:50.358Z,100634.13
2023-04-26T21:29:19.583Z,100630.47
2023-04-26T21:31:48.679Z,100624.09
2023-04-26T21:34:21.471Z,100626.56
2023-04-26T21:36:50.403Z,100624.47
2023-04-26T21:39:25.202Z,100626.75
2023-04-26T21:41:51.811Z,100624.81
2023-04-26T21:44:21.482Z,100632.06
2023-04-26T21:46:53.559Z,100632.06
2023-04-26T21:49:28.923Z,100634.22
2023-04-26T21:51:55.668Z,100635.22
2023-04-26T21:54:22.521Z,100628.72
2023-04-26T21:56:56.705Z,100631.03
2023-04-26T21:59:23.388Z,100622.72
2023-04-26T22:01:50.094Z,100624.91
2023-04-26T22:04:17.064Z,100627.94
2023-04-26T22:06:43.855Z,100623.75
2023-04-26T22:09:11.587Z,100632.03
2023-04-26T22:11:38.477Z,100628.72
2023-04-26T22:14:05.209Z,100628.22
2023-04-26T22:16:32.080Z,100637.34
2023-04-26T22:18:58.878Z,100634.34
2023-04-26T22:21:28.413Z,100630.19
2023-04-26T22:23:55.089Z,100628.53
2023-04-26T22:26:21.852Z,100633.84
2023-04-26T22:28:48.488Z,100630.34
2023-04-26T22:31:15.134Z,100634.97
2023-04-26T22:33:51.557Z,100639.16
2023-04-26T22:36:18.224Z,100641.81
2023-04-26T22:38:44.920Z,100648.41
2023-04-26T22:41:13.669Z,100648.38
2023-04-26T22:43:41.624Z,100649.81
2023-04-26T22:46:08.322Z,100648.16
2023-04-26T22:48:35.036Z,100649.28
2023-04-26T22:51:02.186Z,100648.38
2023-04-26T22:53:28.830Z,100647.69
2023-04-26T22:56:02.815Z,100655.28
2023-04-26T22:58:29.801Z,100647.16
2023-04-26T23:00:58.988Z,100644.81
2023-04-26T23:03:28.415Z,100648.78
2023-04-26T23:06:03.555Z,100650.53
2023-04-26T23:08:30.209Z,100648.38
2023-04-26T23:10:59.414Z,100650.84
2023-04-26T23:13:29.574Z,100654.00
2023-04-26T23:16:14.548Z,100662.56
2023-04-26T23:18:44.558Z,100661.91
2023-04-26T23:21:11.349Z,100664.25
2023-04-26T23:23:42.798Z,100660.22
2023-04-26T23:26:09.914Z,100662.88
2023-04-26T23:28:36.588Z,100658.63
2023-04-26T23:31:03.374Z,100657.13
2023-04-26T23:33:30.009Z,100653.94
2023-04-26T23:35:59.684Z,100655.00
2023-04-26T23:38:28.968Z,100658.13
2023-04-26T23:40:58.669Z,100657.91
2023-04-26T23:43:28.294Z,100651.97
2023-04-26T23:45:58.605Z,100657.16
2023-04-26T23:48:33.077Z,100653.44
2023-04-26T23:51:00.318Z,100653.50
2023-04-26T23:53:29.949Z,100650.50
2023-04-26T23:55:58.563Z,100644.56
2023-04-26T23:58:32.263Z,100650.13
